sensor_id;sensor_type;location;lat;lon;timestamp;P1;durP1;ratioP1;P2;durP2;ratioP2
76749;SDS011;66447;35.844;14.468;2023-03-11T00:03:26;31.67;;;5.40;;
76749;SDS011;66447;35.844;14.468;2023-03-11T00:18:28;32.03;;;5.50;;
76749;SDS011;66447;35.844;14.468;2023-03-11T00:33:30;24.55;;;4.70;;
76749;SDS011;66447;35.844;14.468;2023-03-11T00:48:31;32.27;;;5.30;;
76749;SDS011;66447;35.844;14.468;2023-03-11T01:03:32;30.47;;;6.10;;
76749;SDS011;66447;35.844;14.468;2023-03-11T01:33:35;42.23;;;6.13;;
76749;SDS011;66447;35.844;14.468;2023-03-11T01:48:36;51.10;;;10.53;;
76749;SDS011;66447;35.844;14.468;2023-03-11T02:03:39;36.35;;;7.45;;
76749;SDS011;66447;35.844;14.468;2023-03-11T02:18:41;36.45;;;6.00;;
76749;SDS011;66447;35.844;14.468;2023-03-11T02:33:44;36.53;;;6.20;;
76749;SDS011;66447;35.844;14.468;2023-03-11T02:48:48;41.15;;;6.65;;
76749;SDS011;66447;35.844;14.468;2023-03-11T03:03:51;45.63;;;7.60;;
76749;SDS011;66447;35.844;14.468;2023-03-11T03:18:52;41.07;;;6.77;;
76749;SDS011;66447;35.844;14.468;2023-03-11T03:33:53;39.07;;;6.07;;
76749;SDS011;66447;35.844;14.468;2023-03-11T03:48:54;41.13;;;6.83;;
76749;SDS011;66447;35.844;14.468;2023-03-11T04:03:55;48.93;;;7.07;;
76749;SDS011;66447;35.844;14.468;2023-03-11T04:18:56;38.07;;;7.50;;
76749;SDS011;66447;35.844;14.468;2023-03-11T04:48:59;44.50;;;6.93;;
76749;SDS011;66447;35.844;14.468;2023-03-11T05:04:00;36.97;;;6.77;;
76749;SDS011;66447;35.844;14.468;2023-03-11T05:19:01;33.87;;;6.10;;
76749;SDS011;66447;35.844;14.468;2023-03-11T05:34:22;26.17;;;5.33;;
76749;SDS011;66447;35.844;14.468;2023-03-11T05:49:23;37.07;;;6.03;;
76749;SDS011;66447;35.844;14.468;2023-03-11T06:19:26;38.90;;;6.63;;
76749;SDS011;66447;35.844;14.468;2023-03-11T06:34:28;45.92;;;7.53;;
76749;SDS011;66447;35.844;14.468;2023-03-11T06:49:30;36.72;;;6.43;;
76749;SDS011;66447;35.844;14.468;2023-03-11T07:04:31;48.30;;;6.88;;
76749;SDS011;66447;35.844;14.468;2023-03-11T07:19:33;44.22;;;7.45;;
76749;SDS011;66447;35.844;14.468;2023-03-11T07:34:34;52.50;;;7.35;;
76749;SDS011;66447;35.844;14.468;2023-03-11T07:49:36;43.95;;;7.20;;
76749;SDS011;66447;35.844;14.468;2023-03-11T08:04:37;42.05;;;6.47;;
76749;SDS011;66447;35.844;14.468;2023-03-11T08:19:39;47.45;;;7.28;;
76749;SDS011;66447;35.844;14.468;2023-03-11T08:34:40;49.28;;;7.05;;
76749;SDS011;66447;35.844;14.468;2023-03-11T08:49:41;70.90;;;8.38;;
76749;SDS011;66447;35.844;14.468;2023-03-11T09:04:43;42.67;;;7.97;;
76749;SDS011;66447;35.844;14.468;2023-03-11T09:19:44;30.17;;;4.93;;
76749;SDS011;66447;35.844;14.468;2023-03-11T09:34:45;29.45;;;4.95;;
76749;SDS011;66447;35.844;14.468;2023-03-11T10:05:14;22.85;;;4.35;;
76749;SDS011;66447;35.844;14.468;2023-03-11T10:36:02;23.70;;;4.60;;
76749;SDS011;66447;35.844;14.468;2023-03-11T10:51:16;34.60;;;4.93;;
76749;SDS011;66447;35.844;14.468;2023-03-11T11:21:30;33.80;;;4.55;;
76749;SDS011;66447;35.844;14.468;2023-03-11T11:36:33;33.00;;;4.70;;
76749;SDS011;66447;35.844;14.468;2023-03-11T12:07:14;26.35;;;3.45;;
76749;SDS011;66447;35.844;14.468;2023-03-11T12:53:00;21.47;;;2.97;;
76749;SDS011;66447;35.844;14.468;2023-03-11T13:23:23;25.70;;;3.38;;
76749;SDS011;66447;35.844;14.468;2023-03-11T13:38:32;21.05;;;3.70;;
76749;SDS011;66447;35.844;14.468;2023-03-11T13:53:43;24.67;;;3.22;;
76749;SDS011;66447;35.844;14.468;2023-03-11T14:08:57;18.73;;;3.47;;
76749;SDS011;66447;35.844;14.468;2023-03-11T14:23:58;24.83;;;3.13;;
76749;SDS011;66447;35.844;14.468;2023-03-11T14:39:02;27.75;;;3.90;;
76749;SDS011;66447;35.844;14.468;2023-03-11T15:09:39;20.42;;;3.25;;
76749;SDS011;66447;35.844;14.468;2023-03-11T15:24:47;20.27;;;3.10;;
76749;SDS011;66447;35.844;14.468;2023-03-11T15:39:51;17.38;;;3.28;;
76749;SDS011;66447;35.844;14.468;2023-03-11T15:54:54;21.48;;;3.80;;
76749;SDS011;66447;35.844;14.468;2023-03-11T16:09:55;22.40;;;3.67;;
76749;SDS011;66447;35.844;14.468;2023-03-11T16:24:56;16.77;;;3.38;;
76749;SDS011;66447;35.844;14.468;2023-03-11T16:40:01;19.13;;;3.63;;
76749;SDS011;66447;35.844;14.468;2023-03-11T16:55:03;19.25;;;3.72;;
76749;SDS011;66447;35.844;14.468;2023-03-11T17:10:05;17.30;;;3.55;;
76749;SDS011;66447;35.844;14.468;2023-03-11T17:25:07;16.40;;;3.38;;
76749;SDS011;66447;35.844;14.468;2023-03-11T17:40:09;21.58;;;3.38;;
76749;SDS011;66447;35.844;14.468;2023-03-11T17:55:11;17.10;;;3.63;;
76749;SDS011;66447;35.844;14.468;2023-03-11T18:10:12;23.93;;;3.93;;
76749;SDS011;66447;35.844;14.468;2023-03-11T18:25:14;27.55;;;4.10;;
76749;SDS011;66447;35.844;14.468;2023-03-11T18:40:15;20.55;;;3.67;;
76749;SDS011;66447;35.844;14.468;2023-03-11T18:55:17;15.80;;;3.25;;
76749;SDS011;66447;35.844;14.468;2023-03-11T19:10:19;19.13;;;3.50;;
76749;SDS011;66447;35.844;14.468;2023-03-11T19:25:20;18.25;;;3.08;;
76749;SDS011;66447;35.844;14.468;2023-03-11T19:40:24;25.63;;;3.72;;
76749;SDS011;66447;35.844;14.468;2023-03-11T19:55:29;17.65;;;3.70;;
76749;SDS011;66447;35.844;14.468;2023-03-11T20:10:30;19.05;;;3.58;;
76749;SDS011;66447;35.844;14.468;2023-03-11T20:25:32;18.30;;;3.38;;
76749;SDS011;66447;35.844;14.468;2023-03-11T20:40:36;14.13;;;2.63;;
76749;SDS011;66447;35.844;14.468;2023-03-11T20:55:37;17.40;;;3.45;;
76749;SDS011;66447;35.844;14.468;2023-03-11T21:10:41;17.35;;;3.05;;
76749;SDS011;66447;35.844;14.468;2023-03-11T21:25:42;21.17;;;4.00;;
76749;SDS011;66447;35.844;14.468;2023-03-11T21:40:44;19.52;;;4.03;;
76749;SDS011;66447;35.844;14.468;2023-03-11T21:55:45;21.42;;;3.67;;
76749;SDS011;66447;35.844;14.468;2023-03-11T22:10:46;16.92;;;3.28;;
76749;SDS011;66447;35.844;14.468;2023-03-11T22:25:48;21.58;;;4.13;;
76749;SDS011;66447;35.844;14.468;2023-03-11T22:40:49;26.08;;;4.28;;
76749;SDS011;66447;35.844;14.468;2023-03-11T22:55:51;23.23;;;4.07;;
76749;SDS011;66447;35.844;14.468;2023-03-11T23:10:52;25.55;;;5.40;;
76749;SDS011;66447;35.844;14.468;2023-03-11T23:25:53;20.35;;;5.00;;
76749;SDS011;66447;35.844;14.468;2023-03-11T23:40:55;22.58;;;4.80;;
76749;SDS011;66447;35.844;14.468;2023-03-11T23:55:56;26.33;;;5.72;;
